createdAt,value
2022-09-04T00:00:19.036Z,18.25
2022-09-04T00:03:15.806Z,18.19
2022-09-04T00:05:50.781Z,18.04
2022-09-04T00:08:33.807Z,18.05
2022-09-04T00:11:12.181Z,17.78
2022-09-04T00:13:47.044Z,17.94
2022-09-04T00:16:23.464Z,17.97
2022-09-04T00:18:59.777Z,17.97
2022-09-04T00:21:36.494Z,17.79
2022-09-04T00:24:11.413Z,17.80
2022-09-04T00:26:50.282Z,17.81
2022-09-04T00:29:26.971Z,17.85
2022-09-04T00:32:07.045Z,17.86
2022-09-04T00:34:48.730Z,17.78
2022-09-04T00:37:23.081Z,17.88
2022-09-04T00:39:59.958Z,17.90
2022-09-04T00:42:45.581Z,17.89
2022-09-04T00:45:24.859Z,17.67
2022-09-04T00:48:21.811Z,17.79
2022-09-04T00:51:11.371Z,17.75
2022-09-04T00:53:58.345Z,17.64
2022-09-04T00:56:51.790Z,17.56
2022-09-04T00:59:35.626Z,17.52
2022-09-04T01:02:20.950Z,17.39
2022-09-04T01:05:03.689Z,17.34
2022-09-04T01:07:46.637Z,17.28
2022-09-04T01:10:30.862Z,17.20
2022-09-04T01:13:09.672Z,17.26
2022-09-04T01:15:43.977Z,17.22
2022-09-04T01:18:19.035Z,17.15
2022-09-04T01:21:07.152Z,17.16
2022-09-04T01:23:52.145Z,17.09
2022-09-04T01:26:30.539Z,17.22
2022-09-04T01:29:14.714Z,17.33
2022-09-04T01:31:53.228Z,17.36
2022-09-04T01:34:37.192Z,17.26
2022-09-04T01:37:20.636Z,17.05
2022-09-04T01:39:59.137Z,17.44
2022-09-04T01:42:44.135Z,17.46
2022-09-04T01:45:14.280Z,17.36
2022-09-04T01:47:49.987Z,17.39
2022-09-04T01:50:25.794Z,17.37
2022-09-04T01:53:01.813Z,17.45
2022-09-04T01:55:39.779Z,17.43
2022-09-04T01:58:21.580Z,17.18
2022-09-04T02:01:01.614Z,17.12
2022-09-04T02:03:41.945Z,17.06
2022-09-04T02:06:24.903Z,16.97
2022-09-04T02:09:11.026Z,16.79
2022-09-04T02:11:45.324Z,16.72
2022-09-04T02:14:37.347Z,16.70
2022-09-04T02:17:18.470Z,16.76
2022-09-04T02:20:15.213Z,16.71
2022-09-04T02:22:51.069Z,16.68
2022-09-04T02:25:30.200Z,16.59
2022-09-04T02:28:11.688Z,16.70
2022-09-04T02:30:54.120Z,16.72
2022-09-04T02:33:32.272Z,16.67
2022-09-04T02:36:08.506Z,16.74
2022-09-04T02:38:45.117Z,16.75
2022-09-04T02:41:22.610Z,16.77
2022-09-04T02:44:07.155Z,16.60
2022-09-04T02:46:52.006Z,16.64
2022-09-04T02:49:31.225Z,16.63
2022-09-04T02:52:09.670Z,16.65
2022-09-04T02:54:59.109Z,16.59
2022-09-04T02:57:43.237Z,16.47
2022-09-04T03:00:21.456Z,16.52
2022-09-04T03:03:08.215Z,16.40
2022-09-04T03:05:46.346Z,16.42
2022-09-04T03:08:22.732Z,16.44
2022-09-04T03:10:57.211Z,16.33
2022-09-04T03:13:33.678Z,16.41
2022-09-04T03:16:12.946Z,16.37
2022-09-04T03:19:04.868Z,16.30
2022-09-04T03:21:43.993Z,16.12
2022-09-04T03:24:20.525Z,16.09
2022-09-04T03:26:53.529Z,16.11
2022-09-04T03:29:33.037Z,16.26
2022-09-04T03:32:16.743Z,16.13
2022-09-04T03:34:58.408Z,16.24
2022-09-04T03:37:43.818Z,16.22
2022-09-04T03:40:23.812Z,16.04
2022-09-04T03:43:12.311Z,16.10
2022-09-04T03:45:50.958Z,16.17
2022-09-04T03:48:37.067Z,16.19
2022-09-04T03:51:24.421Z,16.13
2022-09-04T03:54:02.720Z,16.12
2022-09-04T03:56:50.626Z,15.77
2022-09-04T03:59:37.999Z,16.05
2022-09-04T04:02:15.033Z,15.94
2022-09-04T04:05:23.395Z,16.08
2022-09-04T04:08:09.500Z,16.11
2022-09-04T04:10:47.945Z,16.15
2022-09-04T04:13:38.834Z,16.23
2022-09-04T04:16:25.691Z,16.18
2022-09-04T04:19:39.521Z,16.18
2022-09-04T04:22:33.976Z,15.31
2022-09-04T04:25:41.384Z,15.99
2022-09-04T04:28:25.913Z,16.08
2022-09-04T04:31:01.222Z,15.81
2022-09-04T04:33:46.947Z,16.05
2022-09-04T04:36:25.649Z,15.76
2022-09-04T04:39:17.143Z,15.72
2022-09-04T04:42:09.300Z,15.62
2022-09-04T04:45:29.670Z,15.70
2022-09-04T04:48:23.908Z,15.63
2022-09-04T04:51:02.859Z,15.70
2022-09-04T04:53:39.095Z,15.72
2022-09-04T04:56:15.570Z,15.75
2022-09-04T04:59:04.390Z,15.41
2022-09-04T05:01:46.173Z,15.65
2022-09-04T05:04:25.881Z,15.73
2022-09-04T05:07:02.668Z,15.68
2022-09-04T05:09:42.894Z,15.76
2022-09-04T05:12:23.316Z,15.87
2022-09-04T05:15:03.704Z,15.73
2022-09-04T05:17:40.694Z,15.44
2022-09-04T05:20:42.226Z,15.59
2022-09-04T05:23:34.199Z,15.61
2022-09-04T05:26:14.255Z,15.63
2022-09-04T05:28:53.154Z,15.70
2022-09-04T05:31:38.765Z,15.58
2022-09-04T05:34:17.071Z,15.49
2022-09-04T05:36:59.397Z,15.93
2022-09-04T05:39:33.081Z,15.83
2022-09-04T05:42:16.971Z,16.30
2022-09-04T05:45:00.495Z,16.54
2022-09-04T05:47:44.852Z,16.53
2022-09-04T05:50:30.363Z,16.53
2022-09-04T05:53:32.365Z,16.58
2022-09-04T05:56:20.482Z,16.71
2022-09-04T05:59:02.785Z,16.73
2022-09-04T06:01:53.726Z,17.03
2022-09-04T06:04:55.972Z,17.13
2022-09-04T06:07:32.461Z,17.16
2022-09-04T06:10:06.090Z,17.43
2022-09-04T06:13:00.435Z,17.63
2022-09-04T06:15:46.875Z,17.58
2022-09-04T06:18:46.712Z,17.66
2022-09-04T06:21:53.150Z,17.84
2022-09-04T06:24:45.967Z,18.50
2022-09-04T06:27:31.239Z,18.42
2022-09-04T06:30:10.947Z,18.92
2022-09-04T06:33:09.474Z,19.24
2022-09-04T06:35:54.755Z,19.28
2022-09-04T06:38:51.390Z,19.16
2022-09-04T06:41:41.450Z,18.70
2022-09-04T06:44:28.971Z,18.58
2022-09-04T06:47:09.129Z,18.65
2022-09-04T06:49:50.040Z,18.36
2022-09-04T06:52:32.703Z,18.28
2022-09-04T06:55:16.000Z,18.20
2022-09-04T06:57:59.529Z,17.98
2022-09-04T07:00:31.043Z,18.23
2022-09-04T07:03:36.544Z,18.29
2022-09-04T07:06:14.437Z,18.31
2022-09-04T07:08:57.334Z,18.39
2022-09-04T07:11:46.177Z,18.45
2022-09-04T07:14:29.697Z,18.38
2022-09-04T07:17:10.275Z,18.56
2022-09-04T07:19:58.802Z,18.34
2022-09-04T07:22:45.717Z,18.51
2022-09-04T07:25:22.340Z,18.48
2022-09-04T07:28:10.269Z,18.68
2022-09-04T07:30:45.997Z,18.69
2022-09-04T07:33:23.401Z,18.79
2022-09-04T07:36:00.831Z,18.83
2022-09-04T07:38:39.865Z,18.94
2022-09-04T07:41:17.783Z,19.04
2022-09-04T07:43:55.323Z,19.11
2022-09-04T07:46:34.303Z,19.16
2022-09-04T07:49:10.263Z,19.04
2022-09-04T07:51:47.644Z,19.30
2022-09-04T07:54:33.348Z,19.41
2022-09-04T07:57:23.772Z,19.29
2022-09-04T08:00:09.527Z,19.36
2022-09-04T08:03:07.139Z,19.53
2022-09-04T08:05:42.639Z,19.62
2022-09-04T08:08:29.674Z,19.84
2022-09-04T08:11:07.802Z,19.92
2022-09-04T08:13:53.801Z,19.93
2022-09-04T08:16:31.363Z,20.00
2022-09-04T08:19:23.346Z,20.09
2022-09-04T08:21:57.147Z,20.15
2022-09-04T08:24:58.293Z,20.24
2022-09-04T08:27:50.030Z,20.23
2022-09-04T08:30:23.605Z,20.15
2022-09-04T08:33:24.067Z,20.16
2022-09-04T08:36:00.189Z,20.03
2022-09-04T08:38:40.895Z,20.45
2022-09-04T08:42:05.006Z,20.64
2022-09-04T08:45:00.345Z,20.64
2022-09-04T08:47:57.657Z,20.81
2022-09-04T08:50:41.248Z,21.06
2022-09-04T08:53:42.556Z,21.08
2022-09-04T09:11:30.189Z,22.40
2022-09-04T09:14:24.300Z,22.22
2022-09-04T09:17:13.643Z,21.99
2022-09-04T09:19:48.317Z,22.26
2022-09-04T09:22:40.327Z,22.44
2022-09-04T09:25:22.336Z,22.33
2022-09-04T09:28:32.659Z,22.63
2022-09-04T09:31:31.091Z,22.59
2022-09-04T09:34:45.699Z,22.70
2022-09-04T09:37:39.522Z,22.96
2022-09-04T09:40:42.154Z,23.15
2022-09-04T09:43:42.166Z,22.89
2022-09-04T09:46:43.557Z,23.46
2022-09-04T09:49:51.806Z,23.58
2022-09-04T09:52:51.647Z,23.81
2022-09-04T09:55:57.161Z,23.80
2022-09-04T09:59:12.346Z,23.81
2022-09-04T10:02:11.831Z,23.73
2022-09-04T10:05:19.399Z,23.66
2022-09-04T10:08:36.024Z,23.99
2022-09-04T10:11:41.601Z,24.15
2022-09-04T10:14:54.070Z,24.15
2022-09-04T10:18:13.676Z,24.35
2022-09-04T10:21:12.470Z,24.40
2022-09-04T10:24:01.283Z,24.37
2022-09-04T10:27:06.337Z,24.32
2022-09-04T10:29:46.347Z,24.51
2022-09-04T10:32:44.449Z,24.55
2022-09-04T10:35:25.454Z,24.69
2022-09-04T10:38:12.073Z,24.83
2022-09-04T10:40:55.219Z,24.81
2022-09-04T10:43:52.316Z,24.94
2022-09-04T10:46:28.764Z,24.73
2022-09-04T10:49:22.341Z,25.07
2022-09-04T10:52:35.870Z,25.06
2022-09-04T10:55:43.993Z,25.08
2022-09-04T10:58:31.655Z,25.09
2022-09-04T11:01:38.121Z,25.08
2022-09-04T11:04:37.515Z,25.15
2022-09-04T11:07:32.651Z,25.28
2022-09-04T11:10:17.706Z,25.50
2022-09-04T11:13:21.283Z,25.57
2022-09-04T11:16:11.253Z,25.73
2022-09-04T11:19:10.490Z,25.57
2022-09-04T11:22:20.471Z,25.78
2022-09-04T11:25:24.805Z,25.79
2022-09-04T11:28:19.643Z,25.79
2022-09-04T11:31:06.124Z,25.86
2022-09-04T11:34:11.801Z,25.83
2022-09-04T11:37:07.257Z,25.86
2022-09-04T11:40:04.375Z,25.73
2022-09-04T11:55:42.274Z,26.49
2022-09-04T11:58:36.595Z,26.48
2022-09-04T12:01:27.089Z,26.58
2022-09-04T12:04:30.872Z,26.49
2022-09-04T12:07:16.222Z,26.51
2022-09-04T12:10:16.764Z,26.26
2022-09-04T12:13:27.662Z,26.57
2022-09-04T12:16:42.286Z,26.58
2022-09-04T12:19:42.471Z,26.41
2022-09-04T12:22:36.471Z,26.48
2022-09-04T12:25:43.194Z,26.48
2022-09-04T12:28:41.922Z,26.72
2022-09-04T12:31:34.468Z,26.62
2022-09-04T12:34:18.511Z,26.61
2022-09-04T12:37:27.558Z,26.89
2022-09-04T12:40:28.436Z,26.93
2022-09-04T12:43:24.235Z,26.92
2022-09-04T12:46:12.773Z,26.84
2022-09-04T12:48:54.417Z,26.91
2022-09-04T12:51:26.799Z,27.10
2022-09-04T12:54:16.891Z,27.21
2022-09-04T12:56:57.804Z,27.44
2022-09-04T12:59:47.156Z,27.34
2022-09-04T13:02:34.219Z,27.48
2022-09-04T13:05:23.081Z,27.70
2022-09-04T13:08:01.474Z,27.69
2022-09-04T13:10:39.258Z,27.86
2022-09-04T13:13:26.441Z,27.83
2022-09-04T13:16:01.574Z,27.96
2022-09-04T13:18:48.861Z,28.00
2022-09-04T13:21:30.089Z,28.06
2022-09-04T13:24:25.540Z,28.00
2022-09-04T13:27:17.028Z,28.03
2022-09-04T13:34:19.073Z,27.84
2022-09-04T13:37:04.525Z,28.01
2022-09-04T13:40:06.886Z,28.10
2022-09-04T13:43:09.308Z,28.20
2022-09-04T13:45:45.709Z,28.19
2022-09-04T13:48:23.449Z,28.36
2022-09-04T13:51:04.217Z,28.27
2022-09-04T13:54:00.421Z,28.34
2022-09-04T13:56:35.353Z,28.49
2022-09-04T13:59:12.046Z,28.46
2022-09-04T14:01:51.557Z,28.45
2022-09-04T14:04:26.747Z,28.51
2022-09-04T14:07:07.048Z,28.51
2022-09-04T14:09:45.128Z,28.43
2022-09-04T14:12:35.798Z,28.51
2022-09-04T14:15:28.708Z,28.57
2022-09-04T14:18:14.115Z,28.32
2022-09-04T14:21:01.202Z,28.43
2022-09-04T14:23:49.362Z,28.42
2022-09-04T14:26:30.851Z,28.39
2022-09-04T14:29:06.877Z,28.46
2022-09-04T14:31:52.282Z,28.54
2022-09-04T14:34:36.258Z,28.54
2022-09-04T14:37:23.261Z,28.64
2022-09-04T14:40:02.443Z,28.59
2022-09-04T14:42:46.821Z,28.56
2022-09-04T14:45:41.082Z,28.81
2022-09-04T14:48:14.618Z,28.91
2022-09-04T14:50:53.785Z,29.08
2022-09-04T14:53:28.236Z,28.68
2022-09-04T14:56:29.130Z,28.51
2022-09-04T14:59:10.084Z,28.43
2022-09-04T15:02:02.609Z,28.52
2022-09-04T15:04:44.706Z,28.43
2022-09-04T15:07:32.797Z,28.43
2022-09-04T15:10:12.446Z,28.28
2022-09-04T15:12:58.419Z,28.49
2022-09-04T15:15:38.363Z,28.46
2022-09-04T15:18:16.050Z,28.59
2022-09-04T15:20:56.586Z,28.50
2022-09-04T15:23:36.256Z,28.30
2022-09-04T15:26:10.390Z,28.31
2022-09-04T15:28:48.978Z,28.27
2022-09-04T15:31:31.301Z,28.24
2022-09-04T15:34:04.049Z,28.25
2022-09-04T15:36:36.141Z,28.13
2022-09-04T15:39:10.131Z,28.08
2022-09-04T15:41:51.865Z,28.01
2022-09-04T15:44:30.321Z,28.06
2022-09-04T15:47:09.824Z,28.04
2022-09-04T15:49:49.455Z,28.07
2022-09-04T15:52:40.408Z,28.09
2022-09-04T15:55:24.819Z,28.08
2022-09-04T15:58:05.258Z,28.01
2022-09-04T16:00:40.527Z,27.94
2022-09-04T16:03:19.357Z,27.97
2022-09-04T16:05:53.567Z,27.83
2022-09-04T16:08:29.673Z,27.66
2022-09-04T16:11:09.183Z,27.54
2022-09-04T16:13:46.333Z,27.68
2022-09-04T16:16:24.201Z,27.66
2022-09-04T16:19:05.789Z,27.68
2022-09-04T16:21:45.690Z,27.54
2022-09-04T16:24:19.871Z,27.55
2022-09-04T16:26:53.551Z,27.62
2022-09-04T16:29:36.522Z,27.53
2022-09-04T16:32:12.679Z,27.45
2022-09-04T16:34:51.321Z,27.08
2022-09-04T16:37:29.976Z,27.07
2022-09-04T16:40:11.895Z,27.16
2022-09-04T16:42:50.121Z,27.26
2022-09-04T16:45:25.357Z,27.21
2022-09-04T16:48:14.466Z,27.16
2022-09-04T16:51:00.466Z,27.09
2022-09-04T16:53:44.187Z,27.09
2022-09-04T16:56:36.825Z,27.01
2022-09-04T16:59:25.645Z,26.86
2022-09-04T17:02:03.369Z,27.01
2022-09-04T17:04:42.734Z,26.82
2022-09-04T17:07:21.492Z,26.85
2022-09-04T17:09:58.801Z,26.87
2022-09-04T17:12:38.228Z,26.80
2022-09-04T17:15:19.134Z,26.82
2022-09-04T17:17:51.703Z,26.72
2022-09-04T17:21:26.148Z,26.62
2022-09-04T17:28:57.899Z,26.52
2022-09-04T17:29:12.647Z,26.49
2022-09-04T17:29:39.432Z,26.41
2022-09-04T17:33:53.962Z,26.42
2022-09-04T17:40:35.450Z,26.29
2022-09-04T17:40:36.994Z,26.21
2022-09-04T17:41:38.292Z,26.31
2022-09-04T17:44:37.016Z,26.10
2022-09-04T17:47:23.366Z,25.97
2022-09-04T17:49:58.754Z,25.94
2022-09-04T17:52:30.876Z,25.86
2022-09-04T17:55:08.664Z,25.86
2022-09-04T17:57:52.129Z,25.74
2022-09-04T18:00:26.913Z,25.77
2022-09-04T18:03:03.990Z,25.67
2022-09-04T18:05:47.318Z,25.58
2022-09-04T18:08:32.540Z,25.57
2022-09-04T18:11:13.938Z,25.40
2022-09-04T18:13:53.456Z,25.49
2022-09-04T18:16:53.294Z,25.51
2022-09-04T18:19:47.488Z,25.39
2022-09-04T18:22:33.301Z,25.26
2022-09-04T18:25:17.226Z,25.30
2022-09-04T18:28:12.526Z,25.17
2022-09-04T18:37:11.833Z,25.17
2022-09-04T18:37:20.786Z,24.87
2022-09-04T18:37:26.905Z,24.95
2022-09-04T18:39:50.923Z,24.91
2022-09-04T18:50:23.164Z,24.69
2022-09-04T18:50:33.816Z,24.51
2022-09-04T18:50:39.755Z,24.74
2022-09-04T18:51:22.136Z,24.51
2022-09-04T18:53:56.194Z,24.48
2022-09-04T18:56:31.107Z,24.51
2022-09-04T18:59:07.457Z,24.33
2022-09-04T19:01:46.138Z,24.47
2022-09-04T19:04:44.769Z,24.27
2022-09-04T19:07:30.020Z,24.15
2022-09-04T19:10:11.942Z,24.19
2022-09-04T19:12:48.126Z,24.13
2022-09-04T19:15:37.685Z,24.15
2022-09-04T19:18:22.331Z,24.14
2022-09-04T19:20:58.165Z,23.89
2022-09-04T19:23:35.394Z,23.94
2022-09-04T19:26:11.951Z,23.91
2022-09-04T19:28:52.354Z,23.64
2022-09-04T19:31:31.764Z,23.59
2022-09-04T19:34:14.935Z,23.62
2022-09-04T19:36:52.002Z,23.60
2022-09-04T19:45:54.946Z,23.37
2022-09-04T19:46:03.404Z,23.39
2022-09-04T19:46:13.319Z,23.10
2022-09-04T19:48:27.258Z,23.05
2022-09-04T19:51:08.118Z,23.07
2022-09-04T19:54:06.402Z,23.01
2022-09-04T19:57:32.036Z,23.00
2022-09-04T19:59:45.558Z,22.87
2022-09-04T20:02:25.129Z,22.99
2022-09-04T20:04:59.248Z,22.93
2022-09-04T20:07:44.352Z,22.97
2022-09-04T20:10:22.049Z,22.97
2022-09-04T20:13:09.701Z,23.07
2022-09-04T20:15:46.443Z,22.95
2022-09-04T20:18:22.420Z,22.95
2022-09-04T20:20:58.993Z,22.80
2022-09-04T20:23:40.007Z,22.84
2022-09-04T20:26:19.328Z,22.77
2022-09-04T20:29:09.624Z,22.65
2022-09-04T20:31:49.509Z,22.69
2022-09-04T20:34:32.259Z,22.64
2022-09-04T20:37:23.598Z,22.57
2022-09-04T20:40:04.747Z,22.40
2022-09-04T20:42:41.064Z,22.52
2022-09-04T20:49:13.969Z,22.17
2022-09-04T20:52:51.515Z,22.37
2022-09-04T20:52:58.420Z,22.41
2022-09-04T20:54:28.493Z,22.45
2022-09-04T20:59:21.016Z,22.40
2022-09-04T21:03:08.214Z,22.38
2022-09-04T21:03:28.012Z,22.29
2022-09-04T21:06:18.692Z,22.39
2022-09-04T21:08:59.203Z,22.32
2022-09-04T21:11:39.325Z,22.30
2022-09-04T21:14:19.160Z,22.32
2022-09-04T21:17:34.093Z,22.19
2022-09-04T21:20:59.844Z,22.18
2022-09-04T21:24:03.866Z,22.15
2022-09-04T21:26:59.965Z,21.96
2022-09-04T21:29:51.947Z,21.94
2022-09-04T21:32:51.616Z,21.94
2022-09-04T21:35:30.011Z,21.96
2022-09-04T21:38:21.717Z,21.94
2022-09-04T21:41:17.438Z,21.80
2022-09-04T21:44:22.528Z,21.68
2022-09-04T21:47:08.805Z,21.81
2022-09-04T21:50:26.962Z,21.82
2022-09-04T21:53:26.611Z,21.80
2022-09-04T22:01:03.395Z,21.72
2022-09-04T22:02:40.285Z,21.61
2022-09-04T22:02:51.539Z,21.46
2022-09-04T22:05:35.002Z,21.48
2022-09-04T22:12:42.702Z,21.39
2022-09-04T22:13:40.851Z,21.30
2022-09-04T22:14:22.796Z,21.36
2022-09-04T22:17:08.355Z,21.42
2022-09-04T22:20:14.961Z,21.40
2022-09-04T22:23:21.207Z,21.15
2022-09-04T22:26:23.565Z,21.21
2022-09-04T22:29:35.378Z,21.19
2022-09-04T22:32:46.143Z,21.12
2022-09-04T22:35:56.960Z,21.11
2022-09-04T22:39:11.212Z,20.93
2022-09-04T22:42:15.054Z,20.87
2022-09-04T22:45:27.105Z,21.05
2022-09-04T22:48:28.572Z,21.00
2022-09-04T22:51:15.231Z,21.25
2022-09-04T22:54:18.752Z,21.27
2022-09-04T22:56:55.872Z,21.26
2022-09-04T22:59:54.034Z,21.13
2022-09-04T23:03:07.588Z,21.11
2022-09-04T23:06:16.199Z,20.96
2022-09-04T23:13:42.710Z,20.95
2022-09-04T23:13:47.522Z,20.89
2022-09-04T23:15:11.099Z,20.98
2022-09-04T23:18:44.371Z,20.75
2022-09-04T23:26:42.854Z,20.75
2022-09-04T23:26:49.022Z,20.88
2022-09-04T23:27:35.712Z,20.98
2022-09-04T23:30:26.635Z,20.92
2022-09-04T23:33:30.258Z,20.95
2022-09-04T23:36:04.916Z,20.88
2022-09-04T23:39:15.414Z,20.78
2022-09-04T23:41:55.697Z,20.84
2022-09-04T23:44:55.341Z,20.81
2022-09-04T23:47:55.022Z,20.84
2022-09-04T23:50:37.560Z,20.93
2022-09-04T23:53:17.054Z,20.90
2022-09-04T23:56:04.499Z,20.71
2022-09-04T23:58:59.965Z,20.67
